createdAt,value
2018-08-23T04:01:49.687Z,15.07
2018-08-23T04:04:20.858Z,16.40
2018-08-23T04:06:51.460Z,17.10
2018-08-23T04:09:23.351Z,16.43
2018-08-23T04:11:54.592Z,16.50
2018-08-23T04:14:25.103Z,16.57
2018-08-23T04:16:56.991Z,18.10
2018-08-23T04:19:29.855Z,15.27
2018-08-23T04:22:01.152Z,15.20
2018-08-23T04:24:32.418Z,16.23
2018-08-23T04:27:03.547Z,13.90
2018-08-23T04:29:39.316Z,14.50
2018-08-23T04:32:10.179Z,15.97
2018-08-23T04:34:41.048Z,16.97
2018-08-23T04:37:12.293Z,15.20
2018-08-23T04:39:48.100Z,15.20
2018-08-23T04:42:18.936Z,14.50
2018-08-23T04:44:57.608Z,16.57
2018-08-23T04:47:36.763Z,15.67
2018-08-23T04:50:08.375Z,15.87
2018-08-23T04:52:38.549Z,17.03
2018-08-23T04:55:10.424Z,14.87
2018-08-23T04:57:51.092Z,15.37
2018-08-23T05:00:27.471Z,16.13
2018-08-23T05:02:58.672Z,14.60
2018-08-23T05:05:34.812Z,15.13
2018-08-23T05:08:11.190Z,16.23
2018-08-23T05:10:45.878Z,14.80
2018-08-23T05:13:19.220Z,17.20
2018-08-23T05:15:52.583Z,14.70
2018-08-23T05:18:26.144Z,16.57
2018-08-23T05:21:05.477Z,13.67
2018-08-23T05:23:38.344Z,15.37
2018-08-23T05:26:14.974Z,14.50
2018-08-23T05:28:57.935Z,15.03
2018-08-23T05:31:35.032Z,15.47
2018-08-23T05:34:13.747Z,15.93
2018-08-23T05:37:02.209Z,14.40
2018-08-23T05:44:38.250Z,15.60
2018-08-23T05:47:14.510Z,14.43
2018-08-23T05:52:32.699Z,15.17
2018-08-23T05:55:03.897Z,14.97
2018-08-23T05:57:38.611Z,15.03
2018-08-23T06:00:22.010Z,15.70
2018-08-23T06:02:59.262Z,13.57
2018-08-23T06:08:37.394Z,12.53
2018-08-23T06:11:13.779Z,13.67
2018-08-23T06:13:47.964Z,14.33
2018-08-23T06:16:26.801Z,13.10
2018-08-23T06:19:03.030Z,14.17
2018-08-23T06:21:38.649Z,13.47
2018-08-23T06:24:11.660Z,14.83
2018-08-23T06:26:52.487Z,13.00
2018-08-23T06:30:05.664Z,11.53
2018-08-23T06:38:42.374Z,12.77
2018-08-23T06:44:17.795Z,12.47
2018-08-23T06:49:34.611Z,11.00
2018-08-23T06:52:27.008Z,12.10
2018-08-23T07:50:25.020Z,8.00
2018-08-23T07:52:58.457Z,7.70
2018-08-23T07:55:34.535Z,6.63
2018-08-23T07:58:09.807Z,6.70
2018-08-23T08:00:43.600Z,6.57
2018-08-23T08:03:17.273Z,6.00
2018-08-23T08:05:48.007Z,6.50
2018-08-23T08:08:19.700Z,5.70
2018-08-23T08:10:49.988Z,6.83
2018-08-23T08:13:21.815Z,5.80
2018-08-23T08:15:54.634Z,4.90
2018-08-23T08:18:29.602Z,4.97
2018-08-23T08:21:05.924Z,5.70
2018-08-23T08:31:00.824Z,5.17
2018-08-23T08:33:36.399Z,5.50
2018-08-23T08:36:17.660Z,5.07
2018-08-23T08:39:01.471Z,5.87
2018-08-23T08:44:30.956Z,4.43
2018-08-23T13:21:06.136Z,7.20
2018-08-23T13:24:18.784Z,7.80
2018-08-23T14:04:14.536Z,6.80
2018-08-23T14:07:08.204Z,6.10
2018-08-23T14:12:40.622Z,7.53
2018-08-23T14:15:40.321Z,8.10
2018-08-23T14:25:07.864Z,7.57
2018-08-23T14:40:55.817Z,8.00
2018-08-23T14:46:19.600Z,9.40
2018-08-23T14:48:53.473Z,8.30
2018-08-23T14:51:29.655Z,9.50
2018-08-23T14:54:06.980Z,8.73
2018-08-23T14:56:44.068Z,9.20
2018-08-23T14:59:22.398Z,8.67
2018-08-23T15:02:03.913Z,8.73
2018-08-23T15:04:50.479Z,10.43
2018-08-23T15:07:23.499Z,10.30
2018-08-23T15:10:06.748Z,9.63
2018-08-23T15:12:44.684Z,9.93
2018-08-23T15:15:29.349Z,10.17
2018-08-23T15:18:03.284Z,9.77
2018-08-23T15:20:43.215Z,10.87
2018-08-23T15:23:20.114Z,9.63
2018-08-23T15:28:42.845Z,12.00
2018-08-23T15:31:37.908Z,10.30
2018-08-23T15:34:16.746Z,10.93
2018-08-23T15:36:59.145Z,11.43
2018-08-23T15:39:37.222Z,11.47
2018-08-23T15:42:19.907Z,11.50
2018-08-23T15:44:58.792Z,10.47
2018-08-23T15:50:20.541Z,10.37
2018-08-23T15:56:03.548Z,10.80
2018-08-23T15:58:42.932Z,14.87
2018-08-23T16:01:30.659Z,14.77
2018-08-23T16:04:08.633Z,11.50
2018-08-23T16:06:48.686Z,12.60
2018-08-23T16:12:51.951Z,11.93
2018-08-23T16:15:30.865Z,13.00
2018-08-23T16:24:22.700Z,12.03
2018-08-23T16:27:19.823Z,13.00
2018-08-23T16:32:42.146Z,13.50
2018-08-23T16:35:30.882Z,13.47
2018-08-23T16:38:06.739Z,13.30
2018-08-23T16:40:51.321Z,12.37
2018-08-23T16:43:31.305Z,12.80
2018-08-23T16:46:11.740Z,12.50
2018-08-23T16:48:53.151Z,12.60
2018-08-23T16:54:23.428Z,13.03
2018-08-23T16:57:06.088Z,11.40
2018-08-23T16:59:47.425Z,13.00
2018-08-23T17:02:26.399Z,12.60
2018-08-23T17:05:04.239Z,13.03
2018-08-23T17:07:50.285Z,13.27
2018-08-23T17:13:27.762Z,12.03
2018-08-23T17:16:17.158Z,12.67
2018-08-23T17:18:58.512Z,13.20
2018-08-23T17:21:37.105Z,13.03
2018-08-23T17:24:12.324Z,12.70
2018-08-23T17:29:30.032Z,11.40
2018-08-23T17:32:09.098Z,13.00
2018-08-23T17:34:47.878Z,13.00
2018-08-23T17:37:47.035Z,11.10
2018-08-23T17:40:20.256Z,12.73
2018-08-23T17:42:52.246Z,12.80
2018-08-23T17:45:26.570Z,13.37
2018-08-23T17:48:03.185Z,14.00
2018-08-23T17:53:22.115Z,13.13
2018-08-23T17:56:09.468Z,14.23
2018-08-23T17:58:43.424Z,12.63
2018-08-23T18:01:15.840Z,12.37
2018-08-23T18:03:49.108Z,14.37
2018-08-23T18:06:21.952Z,12.70
2018-08-23T18:08:54.685Z,14.00
2018-08-23T18:11:28.684Z,13.43
2018-08-23T18:14:00.504Z,12.33
2018-08-23T18:16:37.057Z,14.17
2018-08-23T18:19:09.264Z,13.70
2018-08-23T18:21:43.138Z,14.77
2018-08-23T18:24:18.808Z,11.63
2018-08-23T18:26:49.907Z,13.27
2018-08-23T18:29:21.032Z,13.30
2018-08-23T18:31:56.452Z,13.67
2018-08-23T18:34:38.527Z,14.03
2018-08-23T18:37:18.000Z,14.00
2018-08-23T18:39:50.236Z,14.27
2018-08-23T18:42:36.643Z,13.50
2018-08-23T18:45:09.480Z,14.10
2018-08-23T18:47:42.163Z,13.40
2018-08-23T18:50:13.875Z,13.23
2018-08-23T18:52:45.980Z,12.57
2018-08-23T18:55:16.528Z,16.43
2018-08-23T18:57:47.906Z,13.87
2018-08-23T19:00:18.901Z,14.80
2018-08-23T19:02:49.821Z,14.93
2018-08-23T19:05:20.812Z,14.97
2018-08-23T19:07:51.672Z,13.27
2018-08-23T19:10:24.545Z,13.53
2018-08-23T19:12:54.716Z,14.40
2018-08-23T19:15:31.280Z,15.50
2018-08-23T19:18:09.048Z,12.77
2018-08-23T19:20:43.329Z,14.80
2018-08-23T19:23:19.170Z,13.40
2018-08-23T19:25:52.498Z,14.10
2018-08-23T19:28:26.658Z,14.83
2018-08-23T19:31:01.283Z,14.93
2018-08-23T19:33:34.381Z,14.70
2018-08-23T19:36:08.230Z,14.97
2018-08-23T19:38:40.098Z,14.03
2018-08-23T19:47:27.959Z,14.07
2018-08-23T19:50:18.214Z,12.80
2018-08-23T20:05:52.888Z,15.80
2018-08-23T20:08:35.105Z,16.10
2018-08-23T20:13:58.861Z,16.57
2018-08-23T20:19:38.716Z,15.73
2018-08-23T20:28:24.452Z,15.77
2018-08-23T20:31:07.250Z,17.60
2018-08-23T20:33:45.694Z,16.03
2018-08-23T20:36:22.847Z,16.77
2018-08-23T20:53:07.789Z,16.70
2018-08-23T20:59:00.346Z,17.40
2018-08-23T21:04:40.047Z,19.17
